sensor_id;sensor_type;location;lat;lon;timestamp;pressure;altitude;pressure_sealevel;temperature;humidity
20825;BME280;10573;50.936;6.978;2023-01-25T00:01:34;103261.22;;;3.96;65.77
20825;BME280;10573;50.936;6.978;2023-01-25T00:04:00;103258.75;;;3.86;65.96
20825;BME280;10573;50.936;6.978;2023-01-25T00:06:25;103254.03;;;3.96;65.55
20825;BME280;10573;50.936;6.978;2023-01-25T00:08:51;103249.38;;;4.01;65.29
20825;BME280;10573;50.936;6.978;2023-01-25T00:11:17;103244.41;;;3.86;65.53
20825;BME280;10573;50.936;6.978;2023-01-25T00:13:43;103246.53;;;4.08;65.32
20825;BME280;10573;50.936;6.978;2023-01-25T00:16:09;103248.75;;;3.92;65.80
20825;BME280;10573;50.936;6.978;2023-01-25T00:18:34;103250.97;;;3.74;65.95
20825;BME280;10573;50.936;6.978;2023-01-25T00:21:11;103247.66;;;3.64;66.46
20825;BME280;10573;50.936;6.978;2023-01-25T00:23:36;103241.34;;;3.65;66.44
20825;BME280;10573;50.936;6.978;2023-01-25T00:26:01;103242.81;;;3.77;66.72
20825;BME280;10573;50.936;6.978;2023-01-25T00:28:27;103246.94;;;3.56;66.99
20825;BME280;10573;50.936;6.978;2023-01-25T00:30:52;103241.63;;;3.53;66.81
20825;BME280;10573;50.936;6.978;2023-01-25T00:35:44;103229.38;;;3.76;66.17
20825;BME280;10573;50.936;6.978;2023-01-25T00:38:37;103230.81;;;3.89;66.60
20825;BME280;10573;50.936;6.978;2023-01-25T00:41:02;103228.69;;;4.02;66.33
20825;BME280;10573;50.936;6.978;2023-01-25T00:43:28;103225.63;;;4.16;65.38
20825;BME280;10573;50.936;6.978;2023-01-25T00:46:00;103218.63;;;4.09;65.48
20825;BME280;10573;50.936;6.978;2023-01-25T00:48:25;103219.03;;;3.93;65.36
20825;BME280;10573;50.936;6.978;2023-01-25T00:50:51;103213.38;;;3.69;66.22
20825;BME280;10573;50.936;6.978;2023-01-25T00:53:19;103218.75;;;3.69;66.87
20825;BME280;10573;50.936;6.978;2023-01-25T00:55:53;103210.22;;;3.52;67.31
20825;BME280;10573;50.936;6.978;2023-01-25T00:58:19;103209.22;;;3.56;67.25
20825;BME280;10573;50.936;6.978;2023-01-25T01:00:44;103212.56;;;3.66;67.04
20825;BME280;10573;50.936;6.978;2023-01-25T01:03:10;103212.50;;;3.67;67.15
20825;BME280;10573;50.936;6.978;2023-01-25T01:05:38;103208.03;;;3.66;66.80
20825;BME280;10573;50.936;6.978;2023-01-25T01:08:04;103202.81;;;3.60;67.20
20825;BME280;10573;50.936;6.978;2023-01-25T01:10:30;103201.59;;;3.74;66.76
20825;BME280;10573;50.936;6.978;2023-01-25T01:12:55;103197.34;;;3.63;67.14
20825;BME280;10573;50.936;6.978;2023-01-25T01:15:20;103204.38;;;3.69;67.33
20825;BME280;10573;50.936;6.978;2023-01-25T01:17:46;103207.16;;;4.00;66.46
20825;BME280;10573;50.936;6.978;2023-01-25T01:20:12;103207.69;;;3.80;66.76
20825;BME280;10573;50.936;6.978;2023-01-25T01:22:37;103204.13;;;3.78;66.86
20825;BME280;10573;50.936;6.978;2023-01-25T01:25:03;103208.31;;;3.56;67.21
20825;BME280;10573;50.936;6.978;2023-01-25T01:27:29;103204.94;;;3.82;66.71
20825;BME280;10573;50.936;6.978;2023-01-25T01:29:54;103200.00;;;3.65;67.28
20825;BME280;10573;50.936;6.978;2023-01-25T01:32:20;103206.06;;;3.73;67.30
20825;BME280;10573;50.936;6.978;2023-01-25T01:34:45;103202.88;;;3.59;67.40
20825;BME280;10573;50.936;6.978;2023-01-25T01:37:11;103207.34;;;3.58;67.56
20825;BME280;10573;50.936;6.978;2023-01-25T01:39:36;103208.06;;;3.65;67.64
20825;BME280;10573;50.936;6.978;2023-01-25T01:42:02;103205.38;;;3.29;68.16
20825;BME280;10573;50.936;6.978;2023-01-25T01:44:47;103211.34;;;3.42;68.52
20825;BME280;10573;50.936;6.978;2023-01-25T01:47:30;103209.66;;;3.38;68.45
20825;BME280;10573;50.936;6.978;2023-01-25T01:50:17;103206.81;;;3.44;68.16
20825;BME280;10573;50.936;6.978;2023-01-25T01:52:44;103201.59;;;3.38;68.42
20825;BME280;10573;50.936;6.978;2023-01-25T01:55:15;103200.81;;;3.32;68.55
20825;BME280;10573;50.936;6.978;2023-01-25T01:57:46;103206.13;;;3.35;68.87
20825;BME280;10573;50.936;6.978;2023-01-25T02:00:20;103204.94;;;3.47;68.84
20825;BME280;10573;50.936;6.978;2023-01-25T02:02:48;103202.19;;;3.49;68.66
20825;BME280;10573;50.936;6.978;2023-01-25T02:05:21;103203.53;;;3.31;68.38
20825;BME280;10573;50.936;6.978;2023-01-25T02:07:51;103201.97;;;3.58;68.05
20825;BME280;10573;50.936;6.978;2023-01-25T02:10:19;103203.75;;;3.59;67.92
20825;BME280;10573;50.936;6.978;2023-01-25T02:12:46;103200.63;;;3.40;68.27
20825;BME280;10573;50.936;6.978;2023-01-25T02:15:12;103198.72;;;3.44;68.35
20825;BME280;10573;50.936;6.978;2023-01-25T02:17:38;103198.88;;;3.38;69.10
20825;BME280;10573;50.936;6.978;2023-01-25T02:25:16;103195.16;;;3.43;68.73
20825;BME280;10573;50.936;6.978;2023-01-25T02:27:47;103191.19;;;3.58;68.72
20825;BME280;10573;50.936;6.978;2023-01-25T02:30:14;103197.63;;;3.52;68.41
20825;BME280;10573;50.936;6.978;2023-01-25T02:32:39;103184.50;;;3.73;67.94
20825;BME280;10573;50.936;6.978;2023-01-25T02:35:05;103187.28;;;3.70;67.64
20825;BME280;10573;50.936;6.978;2023-01-25T02:37:30;103185.31;;;3.77;67.53
20825;BME280;10573;50.936;6.978;2023-01-25T02:39:56;103185.91;;;3.53;67.92
20825;BME280;10573;50.936;6.978;2023-01-25T02:42:21;103191.19;;;3.58;68.21
20825;BME280;10573;50.936;6.978;2023-01-25T02:44:49;103188.94;;;3.76;68.07
20825;BME280;10573;50.936;6.978;2023-01-25T02:47:15;103185.88;;;3.55;68.66
20825;BME280;10573;50.936;6.978;2023-01-25T02:49:40;103175.00;;;3.58;68.14
20825;BME280;10573;50.936;6.978;2023-01-25T02:52:06;103171.34;;;3.61;68.17
20825;BME280;10573;50.936;6.978;2023-01-25T02:54:31;103171.53;;;3.53;67.92
20825;BME280;10573;50.936;6.978;2023-01-25T02:56:57;103163.25;;;3.25;69.19
20825;BME280;10573;50.936;6.978;2023-01-25T02:59:22;103167.84;;;3.57;68.45
20825;BME280;10573;50.936;6.978;2023-01-25T03:01:49;103166.03;;;3.58;67.92
20825;BME280;10573;50.936;6.978;2023-01-25T03:04:15;103167.59;;;3.32;68.72
20825;BME280;10573;50.936;6.978;2023-01-25T03:06:41;103175.88;;;3.24;69.50
20825;BME280;10573;50.936;6.978;2023-01-25T03:09:08;103175.19;;;3.50;69.13
20825;BME280;10573;50.936;6.978;2023-01-25T03:11:34;103170.03;;;3.43;69.06
20825;BME280;10573;50.936;6.978;2023-01-25T03:14:00;103177.84;;;3.53;68.94
20825;BME280;10573;50.936;6.978;2023-01-25T03:16:26;103180.34;;;3.60;68.67
20825;BME280;10573;50.936;6.978;2023-01-25T03:18:52;103166.31;;;3.47;68.85
20825;BME280;10573;50.936;6.978;2023-01-25T03:21:19;103165.31;;;3.51;69.00
20825;BME280;10573;50.936;6.978;2023-01-25T03:23:46;103157.38;;;3.45;68.64
20825;BME280;10573;50.936;6.978;2023-01-25T03:26:15;103173.56;;;3.79;68.45
20825;BME280;10573;50.936;6.978;2023-01-25T03:28:41;103169.63;;;3.58;68.60
20825;BME280;10573;50.936;6.978;2023-01-25T03:31:08;103166.16;;;3.53;68.69
20825;BME280;10573;50.936;6.978;2023-01-25T03:33:37;103168.00;;;3.51;69.18
20825;BME280;10573;50.936;6.978;2023-01-25T03:36:03;103179.34;;;3.65;68.40
20825;BME280;10573;50.936;6.978;2023-01-25T03:38:29;103180.06;;;3.70;68.38
20825;BME280;10573;50.936;6.978;2023-01-25T03:40:56;103179.44;;;3.61;68.67
20825;BME280;10573;50.936;6.978;2023-01-25T03:43:23;103179.44;;;3.61;68.59
20825;BME280;10573;50.936;6.978;2023-01-25T03:45:54;103172.81;;;3.38;68.83
20825;BME280;10573;50.936;6.978;2023-01-25T03:48:21;103167.22;;;3.10;70.27
20825;BME280;10573;50.936;6.978;2023-01-25T03:50:55;103163.22;;;3.28;69.89
20825;BME280;10573;50.936;6.978;2023-01-25T03:53:24;103161.81;;;3.47;69.59
20825;BME280;10573;50.936;6.978;2023-01-25T03:56:07;103159.06;;;3.49;69.10
20825;BME280;10573;50.936;6.978;2023-01-25T03:58:36;103165.59;;;3.40;69.18
20825;BME280;10573;50.936;6.978;2023-01-25T04:01:06;103151.94;;;3.48;69.13
20825;BME280;10573;50.936;6.978;2023-01-25T04:03:32;103159.00;;;3.16;69.81
20825;BME280;10573;50.936;6.978;2023-01-25T04:05:59;103154.78;;;3.42;69.54
20825;BME280;10573;50.936;6.978;2023-01-25T04:08:24;103155.75;;;3.01;70.50
20825;BME280;10573;50.936;6.978;2023-01-25T04:11:00;103149.53;;;3.35;69.89
20825;BME280;10573;50.936;6.978;2023-01-25T04:13:27;103144.81;;;3.44;69.24
20825;BME280;10573;50.936;6.978;2023-01-25T04:15:52;103137.69;;;3.43;69.57
20825;BME280;10573;50.936;6.978;2023-01-25T04:18:18;103130.19;;;3.54;69.10
20825;BME280;10573;50.936;6.978;2023-01-25T04:20:44;103136.06;;;3.35;69.71
20825;BME280;10573;50.936;6.978;2023-01-25T04:23:10;103125.38;;;3.67;68.16
20825;BME280;10573;50.936;6.978;2023-01-25T04:25:36;103126.72;;;3.49;68.79
20825;BME280;10573;50.936;6.978;2023-01-25T04:28:04;103112.63;;;3.39;68.90
20825;BME280;10573;50.936;6.978;2023-01-25T04:30:30;103119.16;;;3.63;68.10
20825;BME280;10573;50.936;6.978;2023-01-25T04:32:55;103114.50;;;3.70;68.59
20825;BME280;10573;50.936;6.978;2023-01-25T04:35:21;103109.25;;;3.64;69.07
20825;BME280;10573;50.936;6.978;2023-01-25T04:37:57;103104.91;;;3.58;68.77
20825;BME280;10573;50.936;6.978;2023-01-25T04:40:24;103105.22;;;3.80;68.04
20825;BME280;10573;50.936;6.978;2023-01-25T04:42:49;103103.09;;;3.60;68.54
20825;BME280;10573;50.936;6.978;2023-01-25T04:45:15;103102.38;;;3.85;68.00
20825;BME280;10573;50.936;6.978;2023-01-25T04:47:40;103108.28;;;3.66;67.97
20825;BME280;10573;50.936;6.978;2023-01-25T04:50:06;103101.66;;;3.47;68.40
20825;BME280;10573;50.936;6.978;2023-01-25T04:52:32;103099.72;;;3.52;68.94
20825;BME280;10573;50.936;6.978;2023-01-25T04:54:58;103105.41;;;3.41;69.43
20825;BME280;10573;50.936;6.978;2023-01-25T04:57:23;103103.16;;;3.57;68.91
20825;BME280;10573;50.936;6.978;2023-01-25T04:59:49;103095.16;;;3.19;69.24
20825;BME280;10573;50.936;6.978;2023-01-25T05:02:14;103096.63;;;3.31;69.18
20825;BME280;10573;50.936;6.978;2023-01-25T05:04:40;103105.16;;;3.49;69.33
20825;BME280;10573;50.936;6.978;2023-01-25T05:07:05;103101.66;;;3.47;69.26
20825;BME280;10573;50.936;6.978;2023-01-25T05:09:30;103101.78;;;3.75;68.36
20825;BME280;10573;50.936;6.978;2023-01-25T05:11:56;103092.03;;;3.36;68.87
20825;BME280;10573;50.936;6.978;2023-01-25T05:14:21;103090.13;;;3.06;69.97
20825;BME280;10573;50.936;6.978;2023-01-25T05:16:47;103089.75;;;3.21;70.08
20825;BME280;10573;50.936;6.978;2023-01-25T05:19:13;103085.53;;;3.44;69.64
20825;BME280;10573;50.936;6.978;2023-01-25T05:21:39;103088.88;;;3.19;69.86
20825;BME280;10573;50.936;6.978;2023-01-25T05:24:26;103091.25;;;3.31;70.11
20825;BME280;10573;50.936;6.978;2023-01-25T05:26:52;103089.03;;;3.14;70.05
20825;BME280;10573;50.936;6.978;2023-01-25T05:29:27;103084.03;;;3.33;69.60
20825;BME280;10573;50.936;6.978;2023-01-25T05:31:53;103082.41;;;3.26;69.54
20825;BME280;10573;50.936;6.978;2023-01-25T05:34:19;103081.38;;;3.32;69.52
20825;BME280;10573;50.936;6.978;2023-01-25T05:36:45;103073.81;;;3.12;69.87
20825;BME280;10573;50.936;6.978;2023-01-25T05:39:10;103076.22;;;3.23;69.83
20825;BME280;10573;50.936;6.978;2023-01-25T05:41:35;103074.88;;;3.39;69.23
20825;BME280;10573;50.936;6.978;2023-01-25T05:44:01;103070.50;;;3.35;69.36
20825;BME280;10573;50.936;6.978;2023-01-25T05:46:27;103073.88;;;3.09;69.97
20825;BME280;10573;50.936;6.978;2023-01-25T05:48:52;103072.47;;;3.28;69.98
20825;BME280;10573;50.936;6.978;2023-01-25T05:51:18;103070.06;;;3.17;70.16
20825;BME280;10573;50.936;6.978;2023-01-25T05:53:43;103071.75;;;3.22;70.43
20825;BME280;10573;50.936;6.978;2023-01-25T05:56:09;103076.38;;;3.51;69.42
20825;BME280;10573;50.936;6.978;2023-01-25T05:58:35;103068.53;;;3.42;69.56
20825;BME280;10573;50.936;6.978;2023-01-25T06:01:05;103064.06;;;3.41;69.46
20825;BME280;10573;50.936;6.978;2023-01-25T06:03:31;103059.94;;;3.27;69.84
20825;BME280;10573;50.936;6.978;2023-01-25T06:05:58;103065.78;;;3.43;69.65
20825;BME280;10573;50.936;6.978;2023-01-25T06:08:26;103066.50;;;3.17;70.05
20825;BME280;10573;50.936;6.978;2023-01-25T06:10:51;103067.25;;;3.22;70.02
20825;BME280;10573;50.936;6.978;2023-01-25T06:13:17;103066.75;;;3.06;70.50
20825;BME280;10573;50.936;6.978;2023-01-25T06:15:42;103064.50;;;3.25;70.65
20825;BME280;10573;50.936;6.978;2023-01-25T06:18:15;103068.19;;;3.21;69.89
20825;BME280;10573;50.936;6.978;2023-01-25T06:20:40;103065.94;;;3.37;69.75
20825;BME280;10573;50.936;6.978;2023-01-25T06:23:06;103061.91;;;3.21;70.17
20825;BME280;10573;50.936;6.978;2023-01-25T06:25:31;103059.34;;;3.16;70.77
20825;BME280;10573;50.936;6.978;2023-01-25T06:27:56;103056.88;;;3.07;70.86
20825;BME280;10573;50.936;6.978;2023-01-25T06:30:22;103061.03;;;3.20;70.92
20825;BME280;10573;50.936;6.978;2023-01-25T06:32:47;103050.34;;;3.15;70.66
20825;BME280;10573;50.936;6.978;2023-01-25T06:35:14;103050.63;;;3.05;70.61
20825;BME280;10573;50.936;6.978;2023-01-25T06:37:40;103053.38;;;3.03;70.76
20825;BME280;10573;50.936;6.978;2023-01-25T06:40:05;103044.78;;;3.23;70.97
20825;BME280;10573;50.936;6.978;2023-01-25T06:42:31;103050.88;;;3.30;70.24
20825;BME280;10573;50.936;6.978;2023-01-25T06:44:56;103041.69;;;3.39;70.32
20825;BME280;10573;50.936;6.978;2023-01-25T06:47:22;103056.91;;;3.40;70.14
20825;BME280;10573;50.936;6.978;2023-01-25T06:49:47;103047.28;;;3.31;70.26
20825;BME280;10573;50.936;6.978;2023-01-25T06:52:13;103049.88;;;2.99;71.10
20825;BME280;10573;50.936;6.978;2023-01-25T06:54:38;103053.63;;;3.28;70.60
20825;BME280;10573;50.936;6.978;2023-01-25T06:57:03;103052.28;;;3.12;70.17
20825;BME280;10573;50.936;6.978;2023-01-25T06:59:29;103051.59;;;3.04;70.62
20825;BME280;10573;50.936;6.978;2023-01-25T07:01:54;103058.72;;;3.05;70.75
20825;BME280;10573;50.936;6.978;2023-01-25T07:04:19;103061.06;;;3.18;70.61
20825;BME280;10573;50.936;6.978;2023-01-25T07:06:45;103060.84;;;3.26;70.16
20825;BME280;10573;50.936;6.978;2023-01-25T07:09:12;103071.22;;;3.42;69.74
20825;BME280;10573;50.936;6.978;2023-01-25T07:11:38;103066.09;;;3.32;69.92
20825;BME280;10573;50.936;6.978;2023-01-25T07:14:04;103064.63;;;3.19;70.12
20825;BME280;10573;50.936;6.978;2023-01-25T07:16:30;103066.66;;;3.11;70.55
20825;BME280;10573;50.936;6.978;2023-01-25T07:19:02;103059.66;;;2.67;71.92
20825;BME280;10573;50.936;6.978;2023-01-25T07:21:28;103066.88;;;3.01;71.21
20825;BME280;10573;50.936;6.978;2023-01-25T07:23:59;103061.63;;;2.95;71.08
20825;BME280;10573;50.936;6.978;2023-01-25T07:26:25;103059.16;;;2.88;71.44
20825;BME280;10573;50.936;6.978;2023-01-25T07:28:52;103062.97;;;3.15;70.29
20825;BME280;10573;50.936;6.978;2023-01-25T07:31:18;103063.28;;;3.02;70.85
20825;BME280;10573;50.936;6.978;2023-01-25T07:33:54;103063.78;;;2.82;71.40
20825;BME280;10573;50.936;6.978;2023-01-25T07:36:20;103052.72;;;2.93;71.34
20825;BME280;10573;50.936;6.978;2023-01-25T07:38:46;103065.72;;;2.76;71.84
20825;BME280;10573;50.936;6.978;2023-01-25T07:41:12;103059.41;;;3.13;71.53
20825;BME280;10573;50.936;6.978;2023-01-25T07:43:37;103053.63;;;3.28;70.33
20825;BME280;10573;50.936;6.978;2023-01-25T07:46:06;103047.50;;;2.87;70.69
20825;BME280;10573;50.936;6.978;2023-01-25T07:48:31;103053.72;;;3.25;70.43
20825;BME280;10573;50.936;6.978;2023-01-25T07:51:02;103052.63;;;3.32;69.96
20825;BME280;10573;50.936;6.978;2023-01-25T07:53:41;103055.56;;;3.23;70.41
20825;BME280;10573;50.936;6.978;2023-01-25T07:56:08;103058.34;;;3.20;70.52
20825;BME280;10573;50.936;6.978;2023-01-25T07:58:34;103057.31;;;3.24;70.27
20825;BME280;10573;50.936;6.978;2023-01-25T08:01:17;103050.41;;;3.14;70.98
20825;BME280;10573;50.936;6.978;2023-01-25T08:03:43;103050.72;;;3.01;71.06
20825;BME280;10573;50.936;6.978;2023-01-25T08:06:09;103052.41;;;3.06;70.96
20825;BME280;10573;50.936;6.978;2023-01-25T08:08:38;103044.88;;;3.20;71.06
20825;BME280;10573;50.936;6.978;2023-01-25T08:11:10;103039.47;;;3.20;70.56
20825;BME280;10573;50.936;6.978;2023-01-25T08:13:38;103048.63;;;3.13;70.58
20825;BME280;10573;50.936;6.978;2023-01-25T08:16:03;103053.09;;;3.14;70.44
20825;BME280;10573;50.936;6.978;2023-01-25T08:18:29;103038.81;;;3.45;69.96
20825;BME280;10573;50.936;6.978;2023-01-25T08:20:57;103045.16;;;3.42;69.75
20825;BME280;10573;50.936;6.978;2023-01-25T08:23:23;103046.94;;;3.43;69.69
20825;BME280;10573;50.936;6.978;2023-01-25T08:25:49;103056.03;;;3.39;69.52
20825;BME280;10573;50.936;6.978;2023-01-25T08:28:14;103047.44;;;3.25;69.85
20825;BME280;10573;50.936;6.978;2023-01-25T08:30:40;103055.47;;;3.26;70.34
20825;BME280;10573;50.936;6.978;2023-01-25T08:33:05;103048.16;;;3.31;69.94
20825;BME280;10573;50.936;6.978;2023-01-25T08:35:30;103043.41;;;3.41;69.70
20825;BME280;10573;50.936;6.978;2023-01-25T08:37:56;103044.66;;;2.93;70.56
20825;BME280;10573;50.936;6.978;2023-01-25T08:40:21;103034.72;;;2.95;71.21
20825;BME280;10573;50.936;6.978;2023-01-25T08:42:46;103038.31;;;2.96;71.24
20825;BME280;10573;50.936;6.978;2023-01-25T08:45:12;103036.66;;;2.90;71.42
20825;BME280;10573;50.936;6.978;2023-01-25T08:47:38;103040.19;;;2.92;72.05
20825;BME280;10573;50.936;6.978;2023-01-25T08:50:03;103037.69;;;2.84;72.19
20825;BME280;10573;50.936;6.978;2023-01-25T08:52:29;103029.53;;;3.22;71.35
20825;BME280;10573;50.936;6.978;2023-01-25T08:54:54;103027.88;;;3.16;71.23
20825;BME280;10573;50.936;6.978;2023-01-25T08:57:20;103025.34;;;3.12;70.69
20825;BME280;10573;50.936;6.978;2023-01-25T08:59:45;103034.38;;;3.09;70.60
20825;BME280;10573;50.936;6.978;2023-01-25T09:02:12;103035.47;;;3.00;70.93
20825;BME280;10573;50.936;6.978;2023-01-25T09:04:37;103035.44;;;3.02;70.67
20825;BME280;10573;50.936;6.978;2023-01-25T09:07:02;103026.53;;;3.34;70.27
20825;BME280;10573;50.936;6.978;2023-01-25T09:09:28;103019.16;;;3.41;70.15
20825;BME280;10573;50.936;6.978;2023-01-25T09:11:55;103024.31;;;3.49;70.00
20825;BME280;10573;50.936;6.978;2023-01-25T09:14:20;103020.00;;;3.43;69.49
20825;BME280;10573;50.936;6.978;2023-01-25T09:16:46;103020.75;;;3.48;69.78
20825;BME280;10573;50.936;6.978;2023-01-25T09:19:12;103024.03;;;3.27;69.96
20825;BME280;10573;50.936;6.978;2023-01-25T09:21:38;103021.13;;;3.34;69.84
20825;BME280;10573;50.936;6.978;2023-01-25T09:24:03;103017.69;;;3.29;70.50
20825;BME280;10573;50.936;6.978;2023-01-25T09:26:29;103023.41;;;3.17;70.66
20825;BME280;10573;50.936;6.978;2023-01-25T09:28:55;103017.69;;;3.29;70.22
20825;BME280;10573;50.936;6.978;2023-01-25T09:31:21;103015.19;;;3.22;71.01
20825;BME280;10573;50.936;6.978;2023-01-25T09:33:47;103005.75;;;3.38;70.68
20825;BME280;10573;50.936;6.978;2023-01-25T09:36:12;103003.09;;;3.36;70.65
20825;BME280;10573;50.936;6.978;2023-01-25T09:38:38;103007.19;;;3.18;70.85
20825;BME280;10573;50.936;6.978;2023-01-25T09:46:41;103000.91;;;2.85;72.22
20825;BME280;10573;50.936;6.978;2023-01-25T09:49:34;103000.81;;;2.88;72.24
20825;BME280;10573;50.936;6.978;2023-01-25T09:54:48;102992.69;;;3.24;71.61
20825;BME280;10573;50.936;6.978;2023-01-25T09:57:40;102984.25;;;3.36;71.07
20825;BME280;10573;50.936;6.978;2023-01-25T10:00:18;102978.34;;;3.24;70.59
20825;BME280;10573;50.936;6.978;2023-01-25T10:05:25;102979.44;;;3.48;70.67
20825;BME280;10573;50.936;6.978;2023-01-25T10:08:05;102977.22;;;3.31;70.46
20825;BME280;10573;50.936;6.978;2023-01-25T10:10:37;102971.38;;;3.46;70.72
20825;BME280;10573;50.936;6.978;2023-01-25T10:13:08;102971.28;;;3.18;70.75
20825;BME280;10573;50.936;6.978;2023-01-25T10:15:42;102966.94;;;3.45;70.03
20825;BME280;10573;50.936;6.978;2023-01-25T10:18:29;102966.34;;;3.34;70.94
20825;BME280;10573;50.936;6.978;2023-01-25T10:21:01;102967.50;;;3.25;70.65
20825;BME280;10573;50.936;6.978;2023-01-25T10:26:00;102953.63;;;3.39;70.17
20825;BME280;10573;50.936;6.978;2023-01-25T10:28:40;102959.03;;;3.39;70.06
20825;BME280;10573;50.936;6.978;2023-01-25T10:31:21;102954.97;;;3.24;70.62
20825;BME280;10573;50.936;6.978;2023-01-25T10:33:50;102943.94;;;3.33;70.32
20825;BME280;10573;50.936;6.978;2023-01-25T10:36:21;102944.09;;;3.27;70.18
20825;BME280;10573;50.936;6.978;2023-01-25T10:38:51;102939.81;;;3.20;70.44
20825;BME280;10573;50.936;6.978;2023-01-25T10:41:33;102938.91;;;3.19;70.43
20825;BME280;10573;50.936;6.978;2023-01-25T10:44:00;102935.19;;;3.25;70.46
20825;BME280;10573;50.936;6.978;2023-01-25T10:47:20;102920.16;;;3.16;70.85
20825;BME280;10573;50.936;6.978;2023-01-25T10:49:52;102923.44;;;3.26;71.00
20825;BME280;10573;50.936;6.978;2023-01-25T10:52:21;102930.13;;;3.13;70.55
20825;BME280;10573;50.936;6.978;2023-01-25T10:54:48;102922.53;;;2.96;71.17
20825;BME280;10573;50.936;6.978;2023-01-25T10:57:28;102928.31;;;3.13;70.64
20825;BME280;10573;50.936;6.978;2023-01-25T10:59:54;102916.53;;;3.17;70.71
20825;BME280;10573;50.936;6.978;2023-01-25T11:05:24;102904.69;;;2.92;71.33
20825;BME280;10573;50.936;6.978;2023-01-25T11:07:49;102910.34;;;3.14;71.31
20825;BME280;10573;50.936;6.978;2023-01-25T11:10:28;102902.28;;;3.44;71.38
20825;BME280;10573;50.936;6.978;2023-01-25T11:15:37;102906.00;;;3.40;71.30
20825;BME280;10573;50.936;6.978;2023-01-25T11:18:11;102900.28;;;3.52;70.73
20825;BME280;10573;50.936;6.978;2023-01-25T11:20:38;102890.97;;;3.32;70.92
20825;BME280;10573;50.936;6.978;2023-01-25T11:23:24;102890.97;;;3.32;71.04
20825;BME280;10573;50.936;6.978;2023-01-25T11:25:51;102898.81;;;3.40;71.00
20825;BME280;10573;50.936;6.978;2023-01-25T11:28:20;102891.88;;;3.31;70.74
20825;BME280;10573;50.936;6.978;2023-01-25T11:30:48;102892.91;;;3.57;70.73
20825;BME280;10573;50.936;6.978;2023-01-25T11:33:15;102880.56;;;3.50;70.55
20825;BME280;10573;50.936;6.978;2023-01-25T11:38:24;102867.38;;;3.69;69.82
20825;BME280;10573;50.936;6.978;2023-01-25T11:41:14;102867.56;;;3.34;70.33
20825;BME280;10573;50.936;6.978;2023-01-25T11:46:55;102836.06;;;3.36;70.86
20825;BME280;10573;50.936;6.978;2023-01-25T11:57:58;102816.66;;;3.25;71.00
20825;BME280;10573;50.936;6.978;2023-01-25T12:06:07;102803.19;;;3.53;70.89
20825;BME280;10573;50.936;6.978;2023-01-25T12:08:39;102789.31;;;3.38;70.66
20825;BME280;10573;50.936;6.978;2023-01-25T12:19:42;102776.66;;;3.40;71.01
20825;BME280;10573;50.936;6.978;2023-01-25T12:27:56;102759.06;;;3.29;71.03
20825;BME280;10573;50.936;6.978;2023-01-25T12:30:50;102751.03;;;3.56;70.84
20825;BME280;10573;50.936;6.978;2023-01-25T12:36:07;102744.16;;;3.46;70.58
20825;BME280;10573;50.936;6.978;2023-01-25T12:38:37;102718.72;;;3.26;70.48
20825;BME280;10573;50.936;6.978;2023-01-25T12:41:21;102718.69;;;3.56;70.41
20825;BME280;10573;50.936;6.978;2023-01-25T12:49:19;102702.38;;;3.32;70.90
20825;BME280;10573;50.936;6.978;2023-01-25T12:51:47;102705.34;;;3.51;70.30
20825;BME280;10573;50.936;6.978;2023-01-25T12:54:27;102695.22;;;3.31;70.74
20825;BME280;10573;50.936;6.978;2023-01-25T13:05:05;102680.03;;;3.56;70.20
20825;BME280;10573;50.936;6.978;2023-01-25T13:07:52;102671.88;;;3.59;70.08
20825;BME280;10573;50.936;6.978;2023-01-25T13:10:25;102675.25;;;3.39;70.66
20825;BME280;10573;50.936;6.978;2023-01-25T13:15:42;102645.19;;;3.51;70.77
20825;BME280;10573;50.936;6.978;2023-01-25T13:20:50;102637.22;;;3.19;71.01
20825;BME280;10573;50.936;6.978;2023-01-25T13:23:49;102626.06;;;3.32;71.34
20825;BME280;10573;50.936;6.978;2023-01-25T13:26:59;102623.00;;;3.16;71.30
20825;BME280;10573;50.936;6.978;2023-01-25T13:32:04;102617.69;;;3.66;70.25
20825;BME280;10573;50.936;6.978;2023-01-25T13:39:47;102603.13;;;3.72;69.85
20825;BME280;10573;50.936;6.978;2023-01-25T13:42:29;102596.78;;;3.48;70.29
20825;BME280;10573;50.936;6.978;2023-01-25T13:44:58;102599.19;;;3.56;70.46
20825;BME280;10573;50.936;6.978;2023-01-25T13:47:28;102600.34;;;3.48;70.87
20825;BME280;10573;50.936;6.978;2023-01-25T13:52:34;102590.06;;;3.34;70.90
20825;BME280;10573;50.936;6.978;2023-01-25T13:55:00;102592.03;;;3.29;71.09
20825;BME280;10573;50.936;6.978;2023-01-25T13:57:28;102592.41;;;3.44;70.94
20825;BME280;10573;50.936;6.978;2023-01-25T14:00:03;102595.66;;;3.28;71.19
20825;BME280;10573;50.936;6.978;2023-01-25T14:02:29;102589.41;;;3.53;70.87
20825;BME280;10573;50.936;6.978;2023-01-25T14:04:56;102588.94;;;3.67;70.02
20825;BME280;10573;50.936;6.978;2023-01-25T14:07:28;102586.94;;;3.47;70.23
20825;BME280;10573;50.936;6.978;2023-01-25T14:09:55;102587.97;;;3.43;70.76
20825;BME280;10573;50.936;6.978;2023-01-25T14:12:32;102587.88;;;3.46;70.20
20825;BME280;10573;50.936;6.978;2023-01-25T14:17:39;102577.75;;;3.52;70.34
20825;BME280;10573;50.936;6.978;2023-01-25T14:20:16;102577.44;;;3.62;69.89
20825;BME280;10573;50.936;6.978;2023-01-25T14:22:49;102572.91;;;3.62;70.13
20825;BME280;10573;50.936;6.978;2023-01-25T14:25:20;102573.88;;;3.61;70.28
20825;BME280;10573;50.936;6.978;2023-01-25T14:27:54;102571.59;;;3.49;70.31
20825;BME280;10573;50.936;6.978;2023-01-25T14:30:25;102571.25;;;3.83;69.73
20825;BME280;10573;50.936;6.978;2023-01-25T14:32:53;102563.19;;;3.58;70.00
20825;BME280;10573;50.936;6.978;2023-01-25T14:37:51;102565.16;;;3.53;70.54
20825;BME280;10573;50.936;6.978;2023-01-25T14:40:22;102561.22;;;3.11;71.96
20825;BME280;10573;50.936;6.978;2023-01-25T14:42:49;102559.72;;;3.29;71.64
20825;BME280;10573;50.936;6.978;2023-01-25T14:45:17;102553.03;;;3.40;71.22
20825;BME280;10573;50.936;6.978;2023-01-25T14:47:43;102553.88;;;3.42;71.42